Time;durP1;ratioP1;P1;durP2;ratioP2;P2;SDS_P1;SDS_P2;PMS_P1;PMS_P2;Temp;Humidity;BMP_temperature;BMP_pressure;BME280_temperature;BME280_humidity;BME280_pressure;Samples;Min_cycle;Max_cycle;Signal;HPM_P1;HPM_P2
2021/12/01 00:00:59;;;;;;;3.25;2.95;;;6.10;99.90;;;;;;4978010;28;20645;-72
2021/12/01 00:03:30;;;;;;;4.10;3.15;;;6.10;99.90;;;;;;4978057;28;20350;-72
2021/12/01 00:06:05;;;;;;;3.80;3.20;;;6.10;99.90;;;;;;4977247;28;20192;-72
2021/12/01 00:08:36;;;;;;;6.53;3.60;;;6.10;99.90;;;;;;4978171;28;20239;-72
2021/12/01 00:11:04;;;;;;;2.80;2.60;;;6.00;99.90;;;;;;4977970;28;20199;-72
2021/12/01 00:13:36;;;;;;;4.10;2.97;;;6.00;99.90;;;;;;4977710;28;20254;-72
2021/12/01 00:16:08;;;;;;;3.08;2.78;;;6.00;99.90;;;;;;4978225;28;20563;-72
2021/12/01 00:18:39;;;;;;;3.70;3.03;;;6.00;99.90;;;;;;4977727;28;20349;-72
2021/12/01 00:21:05;;;;;;;3.78;3.47;;;6.00;99.90;;;;;;4977603;28;20202;-72
2021/12/01 00:23:31;;;;;;;4.53;3.60;;;6.00;99.90;;;;;;4995777;28;20291;-72
2021/12/01 00:25:58;;;;;;;3.60;3.22;;;6.00;99.90;;;;;;4995330;28;20504;-72
2021/12/01 00:28:25;;;;;;;6.05;2.90;;;6.00;99.90;;;;;;4977939;28;20562;-72
2021/12/01 00:30:53;;;;;;;3.30;3.00;;;6.00;99.90;;;;;;4977687;28;20199;-72
2021/12/01 00:33:23;;;;;;;4.90;3.15;;;6.00;99.90;;;;;;4977675;28;20222;-72
2021/12/01 00:35:56;;;;;;;2.78;2.30;;;6.10;99.90;;;;;;4977869;28;20644;-72
2021/12/01 00:38:23;;;;;;;4.60;3.30;;;6.10;99.90;;;;;;4977516;28;20569;-72
2021/12/01 00:40:50;;;;;;;3.17;2.75;;;6.10;99.90;;;;;;4977455;28;20206;-72
2021/12/01 00:43:26;;;;;;;4.28;2.42;;;6.10;99.90;;;;;;4977612;28;20580;-72
2021/12/01 00:46:23;;;;;;;4.07;3.33;;;6.10;99.90;;;;;;4977235;28;20184;-72
2021/12/01 00:48:50;;;;;;;4.75;3.65;;;6.10;99.90;;;;;;4977251;28;20697;-72
2021/12/01 00:51:17;;;;;;;3.38;3.08;;;6.10;99.90;;;;;;4977198;28;20210;-72
2021/12/01 00:53:47;;;;;;;5.05;3.80;;;6.10;99.90;;;;;;4977247;28;20211;-72
2021/12/01 00:56:14;;;;;;;3.60;3.30;;;6.10;99.90;;;;;;4977458;28;20215;-72
2021/12/01 00:58:43;;;;;;;3.83;3.40;;;6.10;99.90;;;;;;4977552;28;20208;-72
2021/12/01 01:01:14;;;;;;;4.10;3.33;;;6.20;99.90;;;;;;4977262;28;20234;-72
2021/12/01 01:03:45;;;;;;;4.47;3.58;;;6.20;99.90;;;;;;4977128;28;20208;-73
2021/12/01 01:06:29;;;;;;;4.72;3.30;;;6.20;99.90;;;;;;4977245;28;20633;-72
2021/12/01 01:09:05;;;;;;;4.28;3.13;;;6.20;99.90;;;;;;4977199;28;20208;-72
2021/12/01 01:17:19;;;;;;;3.88;3.55;;;6.20;99.90;;;;;;4975739;28;20271;-72
2021/12/01 01:19:48;;;;;;;4.97;3.90;;;6.20;99.90;;;;;;4957719;28;20176;-72
2021/12/01 01:22:15;;;;;;;3.88;3.33;;;6.20;99.90;;;;;;4957716;28;20220;-72
2021/12/01 01:24:51;;;;;;;3.45;3.05;;;6.20;99.90;;;;;;4957168;28;20176;-72
2021/12/01 01:27:19;;;;;;;3.20;2.90;;;6.20;99.90;;;;;;4957433;28;20217;-73
2021/12/01 01:29:50;;;;;;;4.65;3.80;;;6.30;99.90;;;;;;4957821;28;20196;-72
2021/12/01 01:32:33;;;;;;;5.05;2.92;;;6.30;99.90;;;;;;4957244;28;20243;-73
2021/12/01 01:35:06;;;;;;;2.92;2.50;;;6.40;99.90;;;;;;4961428;28;20183;-72
2021/12/01 01:37:34;;;;;;;4.22;3.15;;;6.40;99.90;;;;;;4978844;28;20228;-72
2021/12/01 01:40:01;;;;;;;3.70;2.92;;;6.40;99.90;;;;;;4961464;28;20180;-72
2021/12/01 01:42:37;;;;;;;2.90;2.63;;;6.50;99.90;;;;;;4961405;28;20651;-72
2021/12/01 01:45:19;;;;;;;3.70;2.72;;;6.50;99.90;;;;;;4961364;28;20172;-72
2021/12/01 01:47:59;;;;;;;3.95;3.25;;;6.60;99.90;;;;;;4961225;28;20215;-72
2021/12/01 01:50:38;;;;;;;2.97;2.67;;;6.60;99.90;;;;;;4961401;28;20607;-72
2021/12/01 01:53:13;;;;;;;4.18;3.15;;;6.60;99.90;;;;;;4961384;28;20236;-72
2021/12/01 01:55:47;;;;;;;2.60;2.40;;;6.70;99.90;;;;;;4961169;28;20274;-72
2021/12/01 01:58:18;;;;;;;3.05;2.72;;;6.70;99.90;;;;;;4961380;28;20205;-72
2021/12/01 02:00:52;;;;;;;3.22;2.92;;;6.70;99.90;;;;;;4961524;28;20533;-72
2021/12/01 02:03:25;;;;;;;3.80;3.03;;;6.70;99.90;;;;;;4961307;28;20676;-72
2021/12/01 02:05:52;;;;;;;3.67;2.97;;;6.70;99.90;;;;;;4961611;28;20649;-72
2021/12/01 02:08:33;;;;;;;5.25;3.17;;;6.70;99.90;;;;;;4961375;28;20753;-72
2021/12/01 02:11:02;;;;;;;6.15;3.00;;;6.70;99.90;;;;;;4978570;28;20196;-72
2021/12/01 02:13:32;;;;;;;3.45;3.00;;;6.70;99.90;;;;;;4960313;28;20266;-72
2021/12/01 02:16:01;;;;;;;4.50;3.00;;;6.70;99.90;;;;;;4960118;28;20548;-72
2021/12/01 02:18:33;;;;;;;3.72;2.83;;;6.70;99.90;;;;;;4960531;28;20208;-72
2021/12/01 02:21:08;;;;;;;5.28;2.85;;;6.80;99.90;;;;;;4976927;28;20195;-73
2021/12/01 02:23:41;;;;;;;4.05;2.80;;;6.80;99.90;;;;;;4960685;28;20201;-72
2021/12/01 02:26:08;;;;;;;5.10;3.28;;;6.80;99.90;;;;;;4960631;28;20665;-72
2021/12/01 02:28:43;;;;;;;4.68;3.22;;;6.90;99.90;;;;;;4960503;28;20263;-72
2021/12/01 02:31:11;;;;;;;3.03;2.72;;;6.90;99.90;;;;;;4960776;28;20203;-72
2021/12/01 02:33:39;;;;;;;4.57;3.40;;;6.80;99.90;;;;;;4960537;28;20208;-72
2021/12/01 02:36:09;;;;;;;3.63;3.15;;;6.90;99.90;;;;;;4960522;28;20176;-72
2021/12/01 02:38:37;;;;;;;3.80;3.05;;;6.90;99.90;;;;;;4960539;28;20236;-72
2021/12/01 02:41:04;;;;;;;3.75;2.88;;;6.90;99.90;;;;;;4960556;28;20657;-72
2021/12/01 02:43:31;;;;;;;3.95;2.95;;;6.90;99.90;;;;;;4960128;28;20224;-72
2021/12/01 02:45:57;;;;;;;3.38;2.80;;;6.90;99.90;;;;;;4960366;28;20203;-72
2021/12/01 02:48:23;;;;;;;3.08;2.78;;;6.90;99.90;;;;;;4960065;28;20619;-72
2021/12/01 02:50:52;;;;;;;5.90;2.70;;;6.90;99.90;;;;;;4960132;28;20181;-71
2021/12/01 02:53:33;;;;;;;2.90;2.55;;;6.90;99.90;;;;;;4960176;28;20227;-72
2021/12/01 02:56:03;;;;;;;4.03;2.65;;;6.90;99.90;;;;;;4960175;28;20191;-72
2021/12/01 02:58:32;;;;;;;3.90;3.00;;;6.90;99.90;;;;;;4959914;28;20204;-73
2021/12/01 03:01:05;;;;;;;5.75;3.00;;;6.90;99.90;;;;;;4960030;28;20184;-73
2021/12/01 03:03:33;;;;;;;3.00;2.70;;;6.90;99.90;;;;;;4959727;28;20303;-73
2021/12/01 03:06:03;;;;;;;3.60;3.00;;;7.00;99.90;;;;;;4960117;28;20184;-72
2021/12/01 03:08:29;;;;;;;2.88;2.40;;;7.00;99.90;;;;;;4977596;28;20201;-72
2021/12/01 03:10:56;;;;;;;3.70;3.10;;;7.00;99.90;;;;;;4959806;28;20173;-72
2021/12/01 03:13:23;;;;;;;3.42;3.03;;;7.00;99.90;;;;;;4977047;28;20267;-72
2021/12/01 03:15:50;;;;;;;4.03;2.70;;;7.00;99.90;;;;;;4959846;28;20180;-72
2021/12/01 03:18:17;;;;;;;5.30;3.03;;;7.00;99.90;;;;;;4959876;28;20701;-72
2021/12/01 03:20:44;;;;;;;4.97;3.10;;;7.10;99.90;;;;;;4959636;28;20181;-72
2021/12/01 03:23:11;;;;;;;5.32;3.20;;;7.10;99.90;;;;;;4959693;28;20632;-72
2021/12/01 03:25:37;;;;;;;3.40;2.60;;;7.10;99.90;;;;;;4959426;28;20311;-72
2021/12/01 03:28:05;;;;;;;6.63;2.80;;;7.10;99.90;;;;;;4959467;28;20212;-73
2021/12/01 03:30:33;;;;;;;2.90;2.40;;;7.10;99.90;;;;;;4959347;28;20180;-72
2021/12/01 03:33:03;;;;;;;4.45;2.60;;;7.10;99.90;;;;;;4975450;28;20240;-72
2021/12/01 03:35:34;;;;;;;3.33;2.85;;;7.10;99.90;;;;;;4959395;28;20204;-72
2021/12/01 03:38:01;;;;;;;5.03;3.33;;;7.20;99.90;;;;;;4959323;28;20583;-72
2021/12/01 03:40:29;;;;;;;3.13;2.70;;;7.20;99.90;;;;;;4959188;28;20219;-72
2021/12/01 03:43:00;;;;;;;3.40;2.42;;;7.20;99.90;;;;;;4975379;28;20208;-73
2021/12/01 03:45:43;;;;;;;5.90;3.08;;;7.20;99.90;;;;;;4959077;28;20176;-73
2021/12/01 03:48:15;;;;;;;3.67;2.67;;;7.20;99.90;;;;;;4958875;28;20701;-72
2021/12/01 03:50:48;;;;;;;2.72;2.35;;;7.20;99.90;;;;;;4959150;28;20180;-72
2021/12/01 03:53:18;;;;;;;2.50;2.30;;;7.20;99.90;;;;;;4958997;28;20224;-73
2021/12/01 03:55:46;;;;;;;3.00;2.70;;;7.20;99.90;;;;;;4958033;28;20548;-72
2021/12/01 03:58:21;;;;;;;4.25;2.85;;;7.30;99.90;;;;;;4958769;28;20219;-73
2021/12/01 04:00:48;;;;;;;2.92;2.42;;;7.30;99.90;;;;;;4958762;28;20203;-72
2021/12/01 04:03:21;;;;;;;3.53;3.17;;;7.30;99.90;;;;;;4959190;28;20224;-73
2021/12/01 04:05:48;;;;;;;4.72;3.28;;;7.30;99.90;;;;;;4958708;28;20180;-72
2021/12/01 04:08:18;;;;;;;3.78;2.83;;;7.30;99.90;;;;;;4958860;28;20613;-72
2021/12/01 04:10:45;;;;;;;4.22;3.03;;;7.30;99.90;;;;;;4958347;28;20204;-72
2021/12/01 04:13:14;;;;;;;2.78;2.58;;;7.30;99.90;;;;;;4958356;28;20282;-73
2021/12/01 04:15:41;;;;;;;3.05;2.75;;;7.30;99.90;;;;;;4958527;28;20658;-73
2021/12/01 04:18:10;;;;;;;4.22;2.45;;;7.30;99.90;;;;;;4958217;28;20216;-72
2021/12/01 04:20:41;;;;;;;4.38;2.80;;;7.30;99.90;;;;;;4957989;28;20715;-72
2021/12/01 04:23:13;;;;;;;3.17;2.88;;;7.40;99.90;;;;;;4958343;28;20208;-73
2021/12/01 04:25:43;;;;;;;3.72;2.80;;;7.40;99.90;;;;;;4975743;28;20251;-72
2021/12/01 04:28:15;;;;;;;2.95;2.55;;;7.30;99.90;;;;;;4958369;28;20200;-72
2021/12/01 04:30:43;;;;;;;2.70;2.50;;;7.30;99.90;;;;;;4958175;28;20651;-72
2021/12/01 04:33:12;;;;;;;3.55;2.65;;;7.40;99.90;;;;;;4958075;28;20279;-72
2021/12/01 04:35:53;;;;;;;3.88;2.30;;;7.40;99.90;;;;;;4958302;28;20204;-72
2021/12/01 04:38:26;;;;;;;2.80;2.45;;;7.40;99.90;;;;;;4958305;28;20616;-72
2021/12/01 04:40:55;;;;;;;3.63;2.00;;;7.40;99.90;;;;;;4958445;28;20177;-72
2021/12/01 04:43:23;;;;;;;3.00;2.70;;;7.50;99.90;;;;;;4973976;28;20208;-72
2021/12/01 04:45:58;;;;;;;2.08;1.67;;;7.50;99.90;;;;;;4957978;28;20183;-72
2021/12/01 04:48:30;;;;;;;2.45;2.25;;;7.50;99.90;;;;;;4956490;28;20796;-72
2021/12/01 04:50:56;;;;;;;5.07;2.28;;;7.60;99.90;;;;;;4957946;28;20181;-72
2021/12/01 04:53:26;;;;;;;2.85;2.15;;;7.50;99.90;;;;;;4957798;28;20225;-72
2021/12/01 04:55:54;;;;;;;2.05;1.85;;;7.60;99.90;;;;;;4957764;28;20179;-72
2021/12/01 04:58:27;;;;;;;5.00;2.15;;;7.60;99.90;;;;;;4957832;28;20294;-72
2021/12/01 05:01:05;;;;;;;3.85;2.15;;;7.60;99.90;;;;;;4974970;28;20187;-72
2021/12/01 05:03:33;;;;;;;3.05;2.42;;;7.60;99.90;;;;;;4957685;28;20618;-73
2021/12/01 05:06:18;;;;;;;3.30;2.22;;;7.70;99.90;;;;;;4957837;28;20180;-72
2021/12/01 05:08:53;;;;;;;3.13;2.25;;;7.70;99.90;;;;;;4957515;28;20570;-73
2021/12/01 05:11:24;;;;;;;2.58;2.25;;;7.70;99.90;;;;;;4957399;28;20211;-72
2021/12/01 05:13:56;;;;;;;4.28;2.45;;;7.80;99.90;;;;;;4957544;28;20298;-72
2021/12/01 05:16:23;;;;;;;3.47;2.20;;;7.90;99.90;;;;;;4957967;28;20187;-73
2021/12/01 05:18:55;;;;;;;1.80;1.60;;;7.90;99.90;;;;;;4958038;28;20212;-73
2021/12/01 05:21:27;;;;;;;4.05;2.78;;;7.90;99.90;;;;;;4958084;28;20176;-72
2021/12/01 05:23:54;;;;;;;2.42;2.22;;;8.00;99.90;;;;;;4957789;28;20216;-73
2021/12/01 05:26:23;;;;;;;2.63;2.30;;;8.00;99.90;;;;;;4958331;28;20184;-73
2021/12/01 05:29:02;;;;;;;2.75;2.25;;;8.00;99.90;;;;;;4957787;28;20673;-74
2021/12/01 05:31:44;;;;;;;2.30;2.00;;;8.10;99.90;;;;;;4957432;28;20216;-73
2021/12/01 05:34:17;;;;;;;8.00;2.45;;;8.10;99.90;;;;;;4973940;28;20200;-73
2021/12/01 05:36:45;;;;;;;3.10;1.80;;;8.20;99.90;;;;;;4957806;28;20267;-73
2021/12/01 05:39:13;;;;;;;3.05;2.20;;;8.20;99.90;;;;;;4958120;28;20200;-73
2021/12/01 05:41:52;;;;;;;3.92;1.92;;;8.20;99.90;;;;;;4957988;28;20188;-73
2021/12/01 05:44:32;;;;;;;4.60;2.58;;;8.30;99.90;;;;;;4957925;28;20208;-73
2021/12/01 05:47:01;;;;;;;4.22;2.17;;;8.30;99.90;;;;;;4957472;28;20184;-74
2021/12/01 05:49:44;;;;;;;2.67;2.15;;;8.40;99.90;;;;;;4956663;28;20279;-73
2021/12/01 05:52:13;;;;;;;4.30;3.25;;;8.40;99.90;;;;;;4971670;28;20796;-74
2021/12/01 05:54:42;;;;;;;3.28;2.78;;;8.40;99.90;;;;;;4955194;28;20657;-73
2021/12/01 05:57:09;;;;;;;3.58;2.17;;;8.40;99.90;;;;;;4954828;28;20187;-74
2021/12/01 05:59:47;;;;;;;5.10;2.58;;;8.40;99.90;;;;;;4955364;28;20263;-73
2021/12/01 06:02:17;;;;;;;4.70;3.03;;;8.40;99.90;;;;;;4955239;28;20190;-73
2021/12/01 06:04:45;;;;;;;5.15;3.40;;;8.40;99.90;;;;;;4952915;28;20263;-73
2021/12/01 06:07:12;;;;;;;3.08;2.70;;;8.50;99.90;;;;;;4953604;28;20313;-74
2021/12/01 06:09:39;;;;;;;2.78;2.28;;;8.50;99.90;;;;;;4969014;28;20184;-73
2021/12/01 06:12:10;;;;;;;3.30;2.17;;;8.50;99.90;;;;;;4965800;28;20247;-74
2021/12/01 06:14:43;;;;;;;3.88;2.17;;;8.50;99.90;;;;;;4988052;28;20216;-73
2021/12/01 06:17:13;;;;;;;2.50;2.28;;;8.50;99.90;;;;;;4965605;28;20192;-73
2021/12/01 06:19:41;;;;;;;2.17;1.70;;;8.50;99.90;;;;;;4979711;28;20228;-73
2021/12/01 06:22:10;;;;;;;3.25;2.30;;;8.50;99.90;;;;;;4974139;28;20199;-73
2021/12/01 06:24:49;;;;;;;1.95;1.80;;;8.50;99.90;;;;;;4992273;28;20192;-72
2021/12/01 06:27:19;;;;;;;2.72;1.90;;;8.50;99.90;;;;;;4974931;28;20204;-73
2021/12/01 06:29:56;;;;;;;6.05;3.60;;;8.50;99.90;;;;;;4993281;28;20187;-72
2021/12/01 06:32:25;;;;;;;9.50;5.78;;;8.50;99.90;;;;;;4992345;28;20238;-72
2021/12/01 06:34:52;;;;;;;6.15;4.95;;;8.50;99.90;;;;;;4990184;28;20649;-74
2021/12/01 06:37:19;;;;;;;6.00;3.75;;;8.60;99.90;;;;;;4987411;28;20197;-73
2021/12/01 06:39:47;;;;;;;4.40;2.50;;;8.60;99.90;;;;;;4970011;28;20188;-73
2021/12/01 06:42:16;;;;;;;2.47;2.28;;;8.60;99.90;;;;;;4974516;28;20216;-73
2021/12/01 06:44:43;;;;;;;4.13;2.80;;;8.70;99.90;;;;;;4991105;28;20180;-73
2021/12/01 06:47:11;;;;;;;3.33;2.30;;;8.60;99.90;;;;;;4973666;28;20621;-73
2021/12/01 06:49:39;;;;;;;3.20;2.30;;;8.70;99.90;;;;;;4990157;28;20648;-73
2021/12/01 06:52:17;;;;;;;4.35;2.35;;;8.70;99.90;;;;;;4972958;28;20224;-72
2021/12/01 06:54:49;;;;;;;3.45;2.47;;;8.70;99.90;;;;;;4968792;28;20250;-73
2021/12/01 06:57:39;;;;;;;6.72;3.15;;;8.70;99.90;;;;;;4966663;28;20221;-74
2021/12/01 07:00:21;;;;;;;4.65;3.00;;;8.70;99.90;;;;;;4968303;28;20181;-73
2021/12/01 07:03:01;;;;;;;5.90;3.88;;;8.70;99.90;;;;;;4985277;28;20704;-73
2021/12/01 07:05:31;;;;;;;7.15;3.65;;;8.70;99.90;;;;;;4991250;28;20187;-72
2021/12/01 07:08:01;;;;;;;4.80;3.30;;;8.70;99.90;;;;;;4989003;28;20693;-73
2021/12/01 07:10:29;;;;;;;8.90;3.38;;;8.70;99.90;;;;;;4988236;28;20203;-73
2021/12/01 07:12:58;;;;;;;3.72;3.17;;;8.70;99.90;;;;;;4971890;28;20248;-73
2021/12/01 07:15:27;;;;;;;5.03;3.42;;;8.70;99.90;;;;;;4988409;28;20203;-73
2021/12/01 07:18:07;;;;;;;5.50;3.60;;;8.80;99.90;;;;;;4967379;28;20263;-73
2021/12/01 07:20:46;;;;;;;3.75;3.10;;;8.80;99.90;;;;;;4985619;28;20188;-72
2021/12/01 07:23:17;;;;;;;3.83;3.20;;;8.90;99.90;;;;;;4989715;28;20208;-73
2021/12/01 07:25:50;;;;;;;8.13;4.53;;;8.90;99.90;;;;;;4985151;28;20192;-73
2021/12/01 07:28:18;;;;;;;6.20;5.07;;;8.90;99.90;;;;;;4984913;28;20235;-73
2021/12/01 07:30:52;;;;;;;4.80;3.90;;;8.90;99.90;;;;;;4965092;28;20264;-73
2021/12/01 07:33:34;;;;;;;5.80;4.40;;;9.00;99.90;;;;;;4971435;28;20224;-73
2021/12/01 07:36:02;;;;;;;10.98;6.78;;;8.90;99.90;;;;;;4985677;28;20188;-73
2021/12/01 07:38:30;;;;;;;11.63;5.30;;;8.90;99.90;;;;;;4965368;28;20248;-73
2021/12/01 07:41:11;;;;;;;11.00;4.00;;;8.90;99.90;;;;;;4979161;28;20192;-74
2021/12/01 07:43:47;;;;;;;5.97;4.30;;;9.00;99.90;;;;;;4964625;28;20211;-73
2021/12/01 07:46:17;;;;;;;5.88;4.25;;;9.00;99.90;;;;;;4970964;28;20185;-73
2021/12/01 07:48:47;;;;;;;9.77;5.45;;;9.10;99.90;;;;;;4958801;28;20216;-73
2021/12/01 07:51:17;;;;;;;7.60;5.93;;;9.20;99.90;;;;;;4960523;28;20279;-73
2021/12/01 07:53:55;;;;;;;10.80;7.50;;;9.20;99.90;;;;;;4941457;28;20238;-73
2021/12/01 07:56:25;;;;;;;11.93;9.80;;;9.30;99.90;;;;;;4937632;28;20196;-74
2021/12/01 07:59:08;;;;;;;13.52;12.13;;;9.40;99.90;;;;;;4930086;28;20208;-73
2021/12/01 08:01:40;;;;;;;5.70;5.18;;;9.50;99.90;;;;;;4945869;28;20284;-73
2021/12/01 08:04:28;;;;;;;11.10;9.95;;;9.70;99.90;;;;;;4965576;28;20212;-73
2021/12/01 08:06:58;;;;;;;7.78;7.07;;;9.80;99.90;;;;;;4965555;28;20199;-72
2021/12/01 08:09:29;;;;;;;7.93;7.32;;;9.80;99.90;;;;;;4985776;28;20204;-73
2021/12/01 08:12:14;;;;;;;3.63;3.33;;;9.70;99.90;;;;;;4970138;28;20702;-73
2021/12/01 08:14:51;;;;;;;3.72;3.30;;;9.60;99.90;;;;;;4972055;28;20224;-73
2021/12/01 08:17:24;;;;;;;4.65;4.05;;;9.50;99.90;;;;;;4970131;28;20240;-73
2021/12/01 08:19:51;;;;;;;6.60;5.00;;;9.40;99.90;;;;;;4973266;28;20646;-73
2021/12/01 08:22:18;;;;;;;7.72;5.90;;;9.40;99.90;;;;;;4969430;28;20192;-73
2021/12/01 08:24:48;;;;;;;8.55;6.72;;;9.40;99.90;;;;;;4966867;28;20778;-73
2021/12/01 08:27:17;;;;;;;7.35;5.55;;;9.30;99.90;;;;;;4963381;28;20232;-73
2021/12/01 08:29:52;;;;;;;14.85;11.65;;;9.30;99.90;;;;;;4961899;28;20587;-73
2021/12/01 08:32:25;;;;;;;18.85;12.30;;;9.30;99.90;;;;;;4954409;28;20323;-72
2021/12/01 08:35:08;;;;;;;11.55;9.60;;;9.30;99.90;;;;;;4953064;28;20188;-73
2021/12/01 08:37:40;;;;;;;29.27;21.30;;;9.30;99.90;;;;;;4953468;28;20267;-73
2021/12/01 08:40:13;;;;;;;13.30;10.88;;;9.30;99.90;;;;;;4956345;28;20187;-72
2021/12/01 08:42:46;;;;;;;15.85;12.35;;;9.40;99.90;;;;;;4969741;28;20207;-73
2021/12/01 08:45:34;;;;;;;6.60;3.45;;;9.30;99.90;;;;;;4967825;28;20181;-73
2021/12/01 08:48:09;;;;;;;6.65;4.25;;;9.30;99.90;;;;;;4938946;28;20227;-73
2021/12/01 08:50:56;;;;;;;7.95;6.70;;;9.30;99.90;;;;;;4948231;28;20189;-72
2021/12/01 08:53:34;;;;;;;5.07;4.57;;;9.30;99.90;;;;;;4968858;28;20560;-73
2021/12/01 08:56:12;;;;;;;4.43;3.33;;;9.40;99.90;;;;;;4945599;28;20259;-72
2021/12/01 08:58:49;;;;;;;7.03;4.38;;;9.40;99.90;;;;;;4952428;28;20220;-73
2021/12/01 09:01:16;;;;;;;8.88;5.25;;;9.40;99.90;;;;;;4952252;28;20723;-73
2021/12/01 09:03:44;;;;;;;9.32;5.70;;;9.50;99.90;;;;;;4944831;28;20723;-73
2021/12/01 09:06:19;;;;;;;11.52;7.00;;;9.50;99.90;;;;;;4942530;28;20283;-73
2021/12/01 09:08:51;;;;;;;6.72;3.75;;;9.50;99.90;;;;;;4951774;28;20204;-73
2021/12/01 09:11:23;;;;;;;6.32;5.38;;;9.50;99.90;;;;;;4964168;28;20196;-73
2021/12/01 09:14:04;;;;;;;6.95;5.47;;;9.50;99.90;;;;;;4952588;28;20236;-73
2021/12/01 09:16:39;;;;;;;14.05;10.23;;;9.50;99.90;;;;;;4947847;29;20700;-73
2021/12/01 09:19:10;;;;;;;4.70;3.45;;;9.60;99.90;;;;;;4948833;29;20215;-73
2021/12/01 09:21:38;;;;;;;7.80;6.55;;;9.60;99.90;;;;;;4951625;28;20184;-72
2021/12/01 09:24:09;;;;;;;5.22;4.35;;;9.60;99.90;;;;;;4969789;28;20215;-73
2021/12/01 09:26:39;;;;;;;13.40;5.70;;;9.70;99.90;;;;;;4969174;28;20208;-73
2021/12/01 09:29:06;;;;;;;18.85;9.30;;;9.70;99.90;;;;;;4948293;28;20208;-73
2021/12/01 09:31:35;;;;;;;19.17;9.13;;;9.80;99.90;;;;;;4954013;28;20216;-73
2021/12/01 09:34:09;;;;;;;7.85;4.65;;;9.80;99.90;;;;;;4965645;28;20308;-73
2021/12/01 09:36:56;;;;;;;5.05;3.90;;;9.90;99.90;;;;;;4968794;28;20477;-73
2021/12/01 09:39:27;;;;;;;6.07;3.30;;;10.00;99.90;;;;;;4957854;28;20210;-73
2021/12/01 09:41:55;;;;;;;8.85;5.65;;;10.10;99.90;;;;;;4971876;28;20594;-73
2021/12/01 09:44:38;;;;;;;4.60;3.20;;;10.20;99.90;;;;;;4970086;28;20216;-74
2021/12/01 09:47:08;;;;;;;8.00;4.88;;;10.30;99.90;;;;;;4951745;28;20330;-73
2021/12/01 09:50:11;;;;;;;10.73;6.65;;;10.50;99.90;;;;;;4953446;28;20537;-73
2021/12/01 09:52:46;;;;;;;11.80;7.53;;;10.70;99.90;;;;;;4926777;28;20243;-73
2021/12/01 09:55:18;;;;;;;9.50;7.18;;;11.00;99.90;;;;;;4963067;28;20234;-73
2021/12/01 09:58:00;;;;;;;4.63;3.53;;;11.20;99.90;;;;;;4959148;28;20204;-72
2021/12/01 10:00:35;;;;;;;7.18;5.47;;;11.50;99.90;;;;;;4959339;28;20227;-72
2021/12/01 10:03:04;;;;;;;7.60;5.80;;;11.70;99.90;;;;;;4955855;28;20658;-73
2021/12/01 10:06:04;;;;;;;4.53;4.03;;;12.00;99.90;;;;;;4955374;29;20235;-73
2021/12/01 10:08:39;;;;;;;4.60;4.20;;;12.30;99.90;;;;;;4950707;28;20473;-73
2021/12/01 10:11:41;;;;;;;6.07;3.33;;;12.60;99.90;;;;;;4947434;28;20409;-72
2021/12/01 10:14:21;;;;;;;4.40;3.43;;;12.80;99.90;;;;;;4938103;28;20291;-71
2021/12/01 10:16:55;;;;;;;5.27;4.77;;;12.90;99.90;;;;;;4944184;28;20487;-72
2021/12/01 10:19:28;;;;;;;7.50;6.50;;;13.00;99.90;;;;;;4968447;28;20489;-72
2021/12/01 10:22:00;;;;;;;6.33;4.27;;;13.10;99.90;;;;;;4971718;28;20445;-71
2021/12/01 10:24:37;;;;;;;5.10;4.60;;;13.10;99.90;;;;;;4992809;28;20441;-72
2021/12/01 10:27:19;;;;;;;7.13;4.93;;;13.10;99.90;;;;;;4972915;28;20460;-71
2021/12/01 10:29:59;;;;;;;3.43;2.90;;;13.10;99.90;;;;;;4973706;28;20433;-72
2021/12/01 10:32:34;;;;;;;4.83;3.83;;;13.10;99.90;;;;;;4983853;28;20505;-72
2021/12/01 10:35:04;;;;;;;7.20;4.30;;;13.10;99.90;;;;;;4976429;28;20421;-71
2021/12/01 10:37:41;;;;;;;4.47;3.13;;;13.10;99.90;;;;;;4992357;28;20439;-71
2021/12/01 10:40:21;;;;;;;8.80;4.87;;;12.90;99.90;;;;;;4991768;28;20408;-71
2021/12/01 10:46:22;;;;;;;6.67;4.10;;;12.80;99.90;;;;;;4989967;28;20412;-72
2021/12/01 10:49:05;;;;;;;4.73;4.00;;;12.80;99.90;;;;;;4992204;28;20440;-72
2021/12/01 10:51:36;;;;;;;4.03;2.80;;;12.70;99.90;;;;;;4969948;28;20443;-72
2021/12/01 10:54:15;;;;;;;5.20;3.63;;;12.60;99.90;;;;;;4980464;28;20581;-72
2021/12/01 10:56:48;;;;;;;5.40;2.23;;;12.50;99.90;;;;;;4972951;28;20492;-72
2021/12/01 10:59:17;;;;;;;3.97;2.30;;;12.50;99.90;;;;;;4983350;28;20981;-71
2021/12/01 11:02:09;;;;;;;10.13;3.87;;;12.40;99.90;;;;;;4989658;28;20483;-71
2021/12/01 11:04:44;;;;;;;4.00;2.53;;;12.30;99.90;;;;;;4990408;28;20487;-71
2021/12/01 11:07:30;;;;;;;10.47;4.90;;;12.20;99.90;;;;;;4989189;28;20416;-71
2021/12/01 11:10:18;;;;;;;7.70;4.37;;;12.20;99.90;;;;;;4993016;28;20426;-71
2021/12/01 11:12:58;;;;;;;10.45;5.70;;;12.20;99.90;;;;;;4972803;28;20528;-70
2021/12/01 11:15:37;;;;;;;4.00;3.10;;;12.20;99.90;;;;;;4967849;28;20717;-71
2021/12/01 11:18:27;;;;;;;3.70;2.80;;;12.30;99.90;;;;;;4947692;28;20220;-71
2021/12/01 11:20:58;;;;;;;9.02;4.35;;;12.30;99.90;;;;;;4957551;28;20504;-71
2021/12/01 11:23:36;;;;;;;2.60;2.40;;;12.40;99.90;;;;;;4970762;28;20204;-71
2021/12/01 11:26:09;;;;;;;7.87;6.03;;;12.40;99.90;;;;;;4972048;28;20416;-71
2021/12/01 11:28:53;;;;;;;6.50;5.00;;;12.50;99.90;;;;;;4955880;28;20522;-71
2021/12/01 11:31:28;;;;;;;3.40;3.00;;;12.40;99.90;;;;;;4954539;28;20414;-71
2021/12/01 11:34:01;;;;;;;9.40;6.10;;;12.40;99.90;;;;;;4953429;28;20474;-71
2021/12/01 11:36:38;;;;;;;11.37;7.63;;;12.30;99.90;;;;;;4970705;28;20414;-71
2021/12/01 11:39:13;;;;;;;11.75;8.60;;;12.30;99.90;;;;;;4968892;28;20906;-73
2021/12/01 11:41:49;;;;;;;3.90;3.00;;;12.30;99.90;;;;;;4968572;28;20195;-74
2021/12/01 11:44:18;;;;;;;9.40;5.17;;;12.30;99.90;;;;;;4954969;28;20446;-74
2021/12/01 11:46:45;;;;;;;9.13;6.70;;;12.30;99.90;;;;;;4954526;28;20411;-74
2021/12/01 11:49:17;;;;;;;7.15;4.60;;;12.30;99.90;;;;;;4952702;28;20232;-74
2021/12/01 11:51:57;;;;;;;9.23;6.50;;;12.30;99.90;;;;;;4970741;28;20220;-71
2021/12/01 11:54:25;;;;;;;13.30;8.63;;;12.30;99.90;;;;;;4967327;28;20464;-71
2021/12/01 11:57:08;;;;;;;10.57;6.83;;;12.20;99.90;;;;;;4973005;28;20692;-71
2021/12/01 11:59:39;;;;;;;11.87;7.27;;;12.20;99.90;;;;;;4970192;28;20437;-71
2021/12/01 12:02:26;;;;;;;10.48;8.05;;;12.20;99.90;;;;;;4963243;28;20558;-71
2021/12/01 12:04:56;;;;;;;5.77;5.10;;;12.30;99.90;;;;;;4954923;28;20242;-72
2021/12/01 12:07:44;;;;;;;5.43;4.27;;;12.40;99.90;;;;;;4953962;28;20529;-71
2021/12/01 12:10:16;;;;;;;4.20;3.80;;;12.40;99.90;;;;;;4965139;28;20430;-73
2021/12/01 12:13:17;;;;;;;5.40;4.20;;;12.40;99.90;;;;;;4969315;28;20486;-71
2021/12/01 12:16:32;;;;;;;5.37;3.93;;;12.50;99.90;;;;;;4975926;28;20435;-72
2021/12/01 12:19:18;;;;;;;4.60;3.90;;;12.60;99.90;;;;;;4995344;28;20531;-71
2021/12/01 12:21:59;;;;;;;6.10;4.57;;;12.80;99.90;;;;;;4968403;28;20501;-71
2021/12/01 12:24:52;;;;;;;4.67;4.13;;;12.80;99.90;;;;;;4966245;28;20462;-71
2021/12/01 12:27:49;;;;;;;6.70;4.40;;;12.90;99.90;;;;;;4967782;28;20417;-71
2021/12/01 12:30:20;;;;;;;5.37;4.40;;;12.90;99.90;;;;;;4985544;28;20829;-71
2021/12/01 12:32:48;;;;;;;4.90;3.30;;;13.00;99.90;;;;;;4985376;28;20495;-70
2021/12/01 12:35:19;;;;;;;3.30;2.60;;;13.00;99.90;;;;;;4972626;28;20433;-71
2021/12/01 12:38:07;;;;;;;6.40;4.00;;;13.10;99.90;;;;;;4965727;28;20480;-71
2021/12/01 12:40:35;;;;;;;6.23;3.80;;;13.10;99.90;;;;;;4973764;28;20435;-71
2021/12/01 12:43:22;;;;;;;4.80;3.33;;;13.10;99.90;;;;;;4963308;28;20465;-72
2021/12/01 12:46:07;;;;;;;3.73;2.63;;;13.00;99.90;;;;;;4965938;28;20470;-72
2021/12/01 12:48:49;;;;;;;3.23;2.23;;;12.90;99.90;;;;;;4968648;28;20765;-72
2021/12/01 12:51:26;;;;;;;4.30;3.50;;;12.90;99.90;;;;;;4983161;28;20861;-72
2021/12/01 12:54:06;;;;;;;3.40;2.80;;;12.80;99.90;;;;;;4969546;28;20472;-71
2021/12/01 12:56:47;;;;;;;3.60;3.20;;;12.80;99.90;;;;;;4969781;28;20963;-72
2021/12/01 12:59:29;;;;;;;8.43;6.30;;;12.80;99.90;;;;;;4979732;28;20967;-72
2021/12/01 13:02:16;;;;;;;6.13;5.07;;;12.80;99.90;;;;;;4968388;28;20438;-72
2021/12/01 13:04:58;;;;;;;4.53;3.13;;;12.70;99.90;;;;;;4979115;28;20506;-72
2021/12/01 13:10:24;;;;;;;6.27;5.67;;;12.70;99.90;;;;;;4958577;28;20423;-72
2021/12/01 13:16:19;;;;;;;6.57;5.07;;;12.70;99.90;;;;;;4948492;28;20431;-71
2021/12/01 13:18:51;;;;;;;6.90;4.67;;;12.80;99.90;;;;;;4969681;28;20604;-72
2021/12/01 13:21:26;;;;;;;6.30;5.70;;;12.90;99.90;;;;;;4938959;28;20443;-72
2021/12/01 13:23:54;;;;;;;10.20;6.30;;;13.10;99.90;;;;;;4950725;28;20986;-72
2021/12/01 13:26:31;;;;;;;8.90;7.50;;;13.20;99.90;;;;;;4955751;28;20434;-72
2021/12/01 13:29:23;;;;;;;9.30;8.50;;;13.30;99.90;;;;;;4969500;28;20855;-72
2021/12/01 13:31:50;;;;;;;7.80;5.47;;;13.40;99.90;;;;;;4972453;28;20474;-72
2021/12/01 13:37:39;;;;;;;8.37;6.90;;;13.60;99.90;;;;;;4971569;28;21061;-73
2021/12/01 13:40:10;;;;;;;6.77;5.83;;;13.70;99.90;;;;;;4954711;28;20824;-73
2021/12/01 13:42:41;;;;;;;10.33;9.43;;;13.70;99.90;;;;;;4951400;28;20871;-72
2021/12/01 13:45:37;;;;;;;6.47;4.97;;;13.70;99.90;;;;;;4970211;28;20475;-73